Time;durP1;ratioP1;P1;durP2;ratioP2;P2;SDS_P1;SDS_P2;PMS_P1;PMS_P2;Temp;Humidity;BMP_temperature;BMP_pressure;BME280_temperature;BME280_humidity;BME280_pressure;Samples;Min_cycle;Max_cycle;Signal;HPM_P1;HPM_P2
2023/01/05 00:02:05;;;;;;;0.43;0.10;;;;;;;9.89;100.00;99275.94;4983380;28;20296;-62
2023/01/05 00:04:31;;;;;;;0.10;0.10;;;;;;;9.82;100.00;99286.03;4996411;28;21133;-63
2023/01/05 00:06:59;;;;;;;0.10;0.10;;;;;;;9.83;100.00;99287.69;4991378;28;20293;-63
2023/01/05 00:09:26;;;;;;;0.10;0.10;;;;;;;9.80;100.00;99287.97;4999653;28;20220;-62
2023/01/05 00:23:00;;;;;;;0.77;0.20;;;;;;;9.80;100.00;99261.88;5000871;28;20230;-63
2023/01/05 00:25:28;;;;;;;0.47;0.20;;;;;;;9.70;100.00;99274.88;5004356;28;20226;-62
2023/01/05 00:27:57;;;;;;;0.97;0.30;;;;;;;9.64;100.00;99267.56;5000580;28;20215;-62
2023/01/05 00:30:26;;;;;;;0.40;0.23;;;;;;;9.62;100.00;99277.31;5003933;28;20213;-62
2023/01/05 00:32:53;;;;;;;0.20;0.20;;;;;;;9.59;100.00;99275.75;5001467;28;20238;-62
2023/01/05 00:35:21;;;;;;;0.97;0.20;;;;;;;9.62;100.00;99269.50;5005565;28;20279;-62
2023/01/05 00:37:48;;;;;;;0.10;0.10;;;;;;;9.64;100.00;99274.56;5001784;28;20763;-63
2023/01/05 00:40:19;;;;;;;0.10;0.10;;;;;;;9.66;100.00;99268.28;5005908;28;20224;-63
2023/01/05 00:42:46;;;;;;;0.00;0.00;;;;;;;9.73;100.00;99265.97;5005538;28;20228;-63
2023/01/05 00:45:15;;;;;;;1.13;0.30;;;;;;;9.75;100.00;99267.50;5002344;28;20228;-62
2023/01/05 00:47:42;;;;;;;0.37;0.20;;;;;;;9.81;100.00;99260.94;5004715;28;20220;-62
2023/01/05 00:50:12;;;;;;;3.60;0.30;;;;;;;9.82;100.00;99275.63;4987541;28;20260;-62
2023/01/05 00:52:38;;;;;;;0.63;0.20;;;;;;;9.83;100.00;99259.03;5004333;28;20219;-62
2023/01/05 00:55:06;;;;;;;1.00;0.27;;;;;;;9.85;100.00;99267.53;5001044;28;20223;-62
2023/01/05 00:57:35;;;;;;;0.40;0.20;;;;;;;9.87;100.00;99251.78;5004492;28;20246;-62
2023/01/05 01:00:02;;;;;;;0.33;0.20;;;;;;;9.90;100.00;99246.28;5000867;28;20616;-62
2023/01/05 01:02:30;;;;;;;0.30;0.10;;;;;;;9.94;100.00;99265.94;5004751;28;20743;-62
2023/01/05 01:04:57;;;;;;;0.67;0.20;;;;;;;9.96;100.00;99256.22;4998409;28;20654;-63
2023/01/05 01:07:23;;;;;;;0.50;0.20;;;;;;;10.05;100.00;99262.41;5004118;28;20224;-63
2023/01/05 01:09:50;;;;;;;0.50;0.10;;;;;;;10.11;100.00;99276.69;4998321;28;20230;-63
2023/01/05 01:12:16;;;;;;;0.33;0.20;;;;;;;10.15;100.00;99281.53;5004000;28;20378;-63
2023/01/05 01:14:48;;;;;;;0.17;0.17;;;;;;;10.19;100.00;99277.69;5003677;28;20229;-63
2023/01/05 01:17:15;;;;;;;0.20;0.10;;;;;;;10.25;100.00;99265.09;5001379;28;20221;-62
2023/01/05 01:19:42;;;;;;;0.20;0.10;;;;;;;10.27;100.00;99263.16;5003951;28;20283;-62
2023/01/05 01:22:09;;;;;;;0.17;0.10;;;;;;;10.26;100.00;99267.53;4999316;28;20223;-62
2023/01/05 01:24:35;;;;;;;0.10;0.00;;;;;;;10.41;100.00;99269.81;5002348;28;20218;-62
2023/01/05 01:27:02;;;;;;;1.23;0.13;;;;;;;10.40;100.00;99255.94;5000021;28;20229;-62
2023/01/05 01:29:29;;;;;;;0.03;0.03;;;;;;;10.41;100.00;99259.38;5002094;28;20235;-62
2023/01/05 01:31:57;;;;;;;0.20;0.17;;;;;;;10.40;100.00;99258.56;4999531;28;20240;-62
2023/01/05 01:34:24;;;;;;;0.30;0.13;;;;;;;10.50;100.00;99250.75;5004056;28;20269;-62
2023/01/05 01:36:50;;;;;;;0.10;0.10;;;;;;;10.52;100.00;99256.66;5000344;28;20222;-62
2023/01/05 01:39:21;;;;;;;0.20;0.20;;;;;;;10.48;100.00;99248.28;5002580;28;20222;-62
2023/01/05 01:41:54;;;;;;;0.00;0.00;;;;;;;10.51;100.00;99228.91;4999707;28;20338;-62
2023/01/05 01:44:54;;;;;;;0.00;0.00;;;;;;;10.54;100.00;99227.81;5003999;28;20217;-62
2023/01/05 01:47:39;;;;;;;0.00;0.00;;;;;;;10.59;100.00;99225.63;4998849;28;20685;-62
2023/01/05 01:50:12;;;;;;;0.10;0.10;;;;;;;10.65;100.00;99221.63;4991669;28;20231;-63
2023/01/05 01:52:39;;;;;;;0.10;0.10;;;;;;;10.68;100.00;99214.34;5018205;28;20284;-62
2023/01/05 01:55:07;;;;;;;0.10;0.10;;;;;;;10.70;100.00;99227.28;4998482;28;22010;-63
2023/01/05 01:57:36;;;;;;;0.00;0.00;;;;;;;10.72;100.00;99226.16;5000654;28;20237;-63
2023/01/05 02:00:06;;;;;;;0.17;0.10;;;;;;;10.74;100.00;99244.31;4999653;28;20225;-63
2023/01/05 02:02:45;;;;;;;0.00;0.00;;;;;;;10.68;100.00;99237.84;5003898;28;20227;-63
2023/01/05 02:05:17;;;;;;;0.10;0.00;;;;;;;10.66;100.00;99231.94;5000422;28;20227;-63
2023/01/05 02:07:46;;;;;;;0.10;0.10;;;;;;;10.67;100.00;99224.94;5003161;28;20308;-63
2023/01/05 02:10:13;;;;;;;0.43;0.10;;;;;;;10.67;100.00;99223.13;4999811;28;20575;-63
2023/01/05 02:12:54;;;;;;;0.00;0.00;;;;;;;10.62;100.00;99226.16;5017994;28;20234;-63
2023/01/05 02:15:29;;;;;;;1.47;0.20;;;;;;;10.63;100.00;99216.53;4999389;28;20232;-63
2023/01/05 02:18:09;;;;;;;0.10;0.10;;;;;;;10.60;100.00;99238.53;4997978;28;20221;-63
2023/01/05 02:20:59;;;;;;;0.00;0.00;;;;;;;10.57;100.00;99212.69;5001837;28;20250;-63
2023/01/05 02:24:13;;;;;;;0.17;0.10;;;;;;;10.47;100.00;99217.06;5000085;28;20258;-63
2023/01/05 02:27:11;;;;;;;0.37;0.17;;;;;;;10.43;100.00;99218.31;4988855;28;20239;-63
2023/01/05 02:29:57;;;;;;;1.20;0.10;;;;;;;10.36;100.00;99215.41;5000475;28;20233;-63
2023/01/05 02:32:29;;;;;;;0.67;0.10;;;;;;;10.29;100.00;99237.75;4989308;28;20261;-64
2023/01/05 02:35:09;;;;;;;0.10;0.10;;;;;;;10.36;100.00;99217.16;4999673;28;20226;-64
2023/01/05 02:37:41;;;;;;;0.10;0.10;;;;;;;10.30;100.00;99234.19;5002553;28;20233;-63
2023/01/05 02:40:13;;;;;;;0.10;0.10;;;;;;;10.25;100.00;99226.75;5000143;28;20235;-64
2023/01/05 02:42:43;;;;;;;0.73;0.20;;;;;;;10.18;100.00;99230.84;5001979;28;20220;-64
2023/01/05 02:45:10;;;;;;;0.13;0.10;;;;;;;10.14;100.00;99238.13;4999315;28;20234;-64
2023/01/05 02:47:41;;;;;;;0.40;0.10;;;;;;;10.16;100.00;99215.34;5002022;28;20228;-64
2023/01/05 02:50:15;;;;;;;0.33;0.10;;;;;;;10.12;100.00;99213.13;4998866;28;20291;-65
2023/01/05 02:52:50;;;;;;;0.10;0.10;;;;;;;10.10;100.00;99197.63;5002025;28;20238;-62
2023/01/05 02:55:25;;;;;;;0.10;0.10;;;;;;;10.10;100.00;99200.22;4998775;28;20225;-62
2023/01/05 02:57:56;;;;;;;0.23;0.10;;;;;;;10.16;100.00;99214.50;4998950;28;20227;-64
2023/01/05 03:00:28;;;;;;;0.10;0.10;;;;;;;10.22;100.00;99200.13;5002408;28;20704;-64
2023/01/05 03:03:02;;;;;;;0.20;0.10;;;;;;;10.24;100.00;99200.81;4999118;28;20217;-62
2023/01/05 03:05:34;;;;;;;0.03;0.03;;;;;;;10.27;100.00;99196.13;5001945;28;20639;-63
2023/01/05 03:08:21;;;;;;;0.57;0.10;;;;;;;10.38;100.00;99216.09;4998288;28;20767;-63
2023/01/05 03:13:48;;;;;;;0.00;0.00;;;;;;;10.27;100.00;99209.19;5001272;28;20329;-63
2023/01/05 03:16:24;;;;;;;0.47;0.17;;;;;;;10.30;100.00;99215.94;4998108;28;20308;-63
2023/01/05 03:35:41;;;;;;;0.13;0.10;;;;;;;10.40;100.00;99192.47;4998686;28;20234;-63
2023/01/05 03:38:13;;;;;;;0.10;0.10;;;;;;;10.45;100.00;99208.56;4998238;28;20670;-64
2023/01/05 03:40:44;;;;;;;0.10;0.07;;;;;;;10.45;100.00;99206.78;5001810;28;20248;-64
2023/01/05 03:43:12;;;;;;;0.13;0.10;;;;;;;10.51;100.00;99197.56;4999646;28;20587;-64
2023/01/05 03:45:43;;;;;;;0.30;0.07;;;;;;;10.51;100.00;99194.16;5006964;28;20223;-64
2023/01/05 03:48:15;;;;;;;0.10;0.10;;;;;;;10.54;100.00;99209.53;4995317;28;20304;-64
2023/01/05 03:50:43;;;;;;;0.10;0.10;;;;;;;10.54;100.00;99199.91;5006224;28;20294;-64
2023/01/05 03:53:16;;;;;;;0.10;0.10;;;;;;;10.59;100.00;99196.91;5001941;28;20230;-64
2023/01/05 03:55:44;;;;;;;0.10;0.10;;;;;;;10.57;100.00;99194.44;5003625;28;20241;-64
2023/01/05 03:58:11;;;;;;;1.37;0.10;;;;;;;10.59;100.00;99194.31;5002311;28;20222;-64
2023/01/05 04:00:42;;;;;;;0.20;0.03;;;;;;;10.58;100.00;99190.84;5004839;28;20230;-64
2023/01/05 04:03:11;;;;;;;0.10;0.07;;;;;;;10.55;100.00;99203.38;5001423;28;20233;-64
2023/01/05 04:05:39;;;;;;;0.10;0.10;;;;;;;10.55;100.00;99208.59;5004350;28;20239;-64
2023/01/05 04:08:07;;;;;;;0.10;0.10;;;;;;;10.50;100.00;99190.72;5000987;28;20225;-64
2023/01/05 04:10:35;;;;;;;0.10;0.00;;;;;;;10.52;100.00;99214.06;5005279;28;20564;-63
2023/01/05 04:13:02;;;;;;;1.27;0.10;;;;;;;10.49;100.00;99207.31;4996471;28;20231;-63
2023/01/05 04:15:29;;;;;;;0.10;0.10;;;;;;;10.47;100.00;99217.91;5004168;28;20801;-63
2023/01/05 04:17:55;;;;;;;0.10;0.10;;;;;;;10.44;100.00;99201.69;4992983;28;20228;-63
2023/01/05 04:20:22;;;;;;;0.23;0.10;;;;;;;10.42;100.00;99201.00;5005093;28;20372;-63
2023/01/05 04:22:49;;;;;;;0.10;0.00;;;;;;;10.40;100.00;99216.81;5001225;28;20326;-63
2023/01/05 04:25:20;;;;;;;0.97;0.20;;;;;;;10.33;100.00;99213.88;5004099;28;20251;-63
2023/01/05 04:27:47;;;;;;;0.50;0.20;;;;;;;10.31;100.00;99199.31;5001624;28;20277;-63
2023/01/05 04:32:57;;;;;;;0.10;0.10;;;;;;;10.28;100.00;99204.81;5060021;23;20694;-62
2023/01/05 04:35:24;;;;;;;0.67;0.10;;;;;;;10.26;100.00;99211.94;5003185;28;20237;-62
2023/01/05 04:37:52;;;;;;;0.17;0.13;;;;;;;10.18;100.00;99200.38;5000963;28;20395;-62
2023/01/05 04:40:20;;;;;;;0.97;0.20;;;;;;;10.15;100.00;99218.91;5002128;28;20225;-62
2023/01/05 04:42:51;;;;;;;0.10;0.10;;;;;;;10.15;100.00;99202.44;4999067;28;20655;-61
2023/01/05 04:45:18;;;;;;;0.20;0.17;;;;;;;10.14;100.00;99206.84;5004073;28;20232;-63
2023/01/05 04:47:45;;;;;;;0.10;0.10;;;;;;;10.16;100.00;99209.28;5003353;28;20229;-63
2023/01/05 04:50:16;;;;;;;0.10;0.10;;;;;;;10.18;100.00;99228.25;5001588;28;20222;-62
2023/01/05 04:52:44;;;;;;;0.13;0.13;;;;;;;10.13;100.00;99220.84;5004130;28;20238;-62
2023/01/05 04:55:11;;;;;;;2.00;0.20;;;;;;;10.09;100.00;99226.44;4999251;28;20326;-62
2023/01/05 04:57:40;;;;;;;0.93;0.10;;;;;;;10.09;100.00;99211.63;5004040;28;20666;-63
2023/01/05 05:00:12;;;;;;;0.10;0.10;;;;;;;10.06;100.00;99227.53;5000529;28;20812;-63
2023/01/05 05:02:39;;;;;;;0.77;0.10;;;;;;;10.10;100.00;99223.72;5003167;28;20220;-62
2023/01/05 05:05:09;;;;;;;0.40;0.20;;;;;;;10.10;100.00;99221.09;5000889;28;20257;-63
2023/01/05 05:07:37;;;;;;;0.73;0.20;;;;;;;10.06;100.00;99221.50;5002882;28;20316;-62
2023/01/05 05:10:05;;;;;;;0.10;0.10;;;;;;;10.05;100.00;99218.06;5000854;28;20221;-62
2023/01/05 05:12:33;;;;;;;1.57;0.13;;;;;;;10.05;100.00;99233.72;5004035;28;20236;-62
2023/01/05 05:15:01;;;;;;;0.20;0.20;;;;;;;10.05;100.00;99244.16;4999946;28;20260;-63
2023/01/05 05:17:29;;;;;;;0.30;0.10;;;;;;;10.02;100.00;99244.41;5005357;28;20223;-63
2023/01/05 05:19:57;;;;;;;0.90;0.20;;;;;;;10.00;100.00;99256.75;4998815;28;20233;-63
2023/01/05 05:22:23;;;;;;;0.13;0.10;;;;;;;9.96;100.00;99263.19;5002849;28;20295;-63
2023/01/05 05:24:50;;;;;;;2.13;0.20;;;;;;;9.97;100.00;99267.44;5001208;28;20228;-62
2023/01/05 05:27:17;;;;;;;0.10;0.10;;;;;;;9.98;100.00;99263.88;5004336;28;21280;-62
2023/01/05 05:29:43;;;;;;;0.83;0.13;;;;;;;9.96;100.00;99269.25;5004761;28;20236;-63
2023/01/05 05:32:11;;;;;;;0.83;0.30;;;;;;;9.92;100.00;99280.06;5001137;28;20235;-63
2023/01/05 05:34:38;;;;;;;0.20;0.20;;;;;;;9.84;100.00;99291.16;5004296;28;20234;-62
2023/01/05 05:37:04;;;;;;;0.17;0.10;;;;;;;9.74;100.00;99283.25;4999933;28;20235;-62
2023/01/05 05:39:31;;;;;;;0.23;0.20;;;;;;;9.65;100.00;99300.50;5005683;28;20244;-62
2023/01/05 05:41:57;;;;;;;0.20;0.20;;;;;;;9.52;100.00;99300.72;4998508;28;20236;-62
2023/01/05 05:44:24;;;;;;;2.33;0.20;;;;;;;9.44;100.00;99305.72;5004428;28;20233;-62
2023/01/05 05:46:50;;;;;;;0.20;0.20;;;;;;;9.38;100.00;99312.25;5001414;28;20276;-62
2023/01/05 05:49:19;;;;;;;0.50;0.30;;;;;;;9.37;100.00;99320.22;5004212;28;20225;-62
2023/01/05 05:51:45;;;;;;;149.60;67.00;;;;;;;9.29;100.00;99313.84;5004753;28;20238;-62
2023/01/05 05:54:12;;;;;;;5.67;3.40;;;;;;;9.27;100.00;99310.56;4998310;28;20249;-62
2023/01/05 05:56:39;;;;;;;0.60;0.37;;;;;;;9.24;100.00;99312.56;5005010;28;20661;-62
2023/01/05 05:59:05;;;;;;;2.50;0.53;;;;;;;9.22;100.00;99314.47;4998424;28;20229;-62
2023/01/05 06:01:32;;;;;;;0.57;0.37;;;;;;;9.24;100.00;99326.44;5003239;28;20230;-62
2023/01/05 06:03:59;;;;;;;2.30;0.57;;;;;;;9.20;100.00;99338.06;4999111;28;20224;-62
2023/01/05 06:06:26;;;;;;;7.93;7.20;;;;;;;9.17;100.00;99322.66;5003776;28;20276;-62
2023/01/05 06:08:53;;;;;;;1.13;0.40;;;;;;;9.19;100.00;99322.53;4999787;28;20234;-62
2023/01/05 06:11:20;;;;;;;1.17;1.07;;;;;;;9.22;100.00;99324.88;5003706;28;20228;-62
2023/01/05 06:13:47;;;;;;;0.87;0.30;;;;;;;9.26;100.00;99332.34;5002676;28;20226;-62
2023/01/05 06:16:14;;;;;;;1.20;0.30;;;;;;;9.32;100.00;99341.41;4999950;28;20242;-62
2023/01/05 06:18:41;;;;;;;0.43;0.30;;;;;;;9.41;100.00;99335.47;5004240;28;20230;-62
2023/01/05 06:21:07;;;;;;;1.23;0.30;;;;;;;9.42;100.00;99334.50;5000395;28;20246;-62
2023/01/05 06:23:35;;;;;;;0.97;0.30;;;;;;;9.42;100.00;99362.38;5003340;28;20597;-62
2023/01/05 06:26:02;;;;;;;1.43;0.47;;;;;;;9.42;100.00;99352.75;5001329;28;20233;-62
2023/01/05 06:28:28;;;;;;;2.30;0.53;;;;;;;9.41;100.00;99355.50;5003320;28;20281;-62
2023/01/05 06:30:55;;;;;;;1.07;0.50;;;;;;;9.45;100.00;99365.53;4997963;28;20229;-63
2023/01/05 06:33:21;;;;;;;4.47;0.70;;;;;;;9.46;100.00;99361.16;5003663;28;20240;-63
2023/01/05 06:35:48;;;;;;;5.73;0.90;;;;;;;9.45;100.00;99359.50;5000228;28;20233;-62
2023/01/05 06:38:15;;;;;;;4.20;1.50;;;;;;;9.44;100.00;99357.84;5003860;28;20214;-62
2023/01/05 06:40:43;;;;;;;3.87;0.60;;;;;;;9.44;100.00;99355.25;5003319;28;20334;-62
2023/01/05 06:43:10;;;;;;;1.73;0.70;;;;;;;9.38;100.00;99363.56;5000171;28;20240;-62
2023/01/05 06:45:37;;;;;;;1.80;0.50;;;;;;;9.38;100.00;99381.81;5003689;28;20920;-62
2023/01/05 06:48:05;;;;;;;1.67;0.70;;;;;;;9.41;100.00;99365.91;5001317;28;20312;-62
2023/01/05 06:50:34;;;;;;;1.53;0.70;;;;;;;9.41;100.00;99373.75;5003744;28;20232;-63
2023/01/05 06:53:00;;;;;;;3.07;0.70;;;;;;;9.42;100.00;99378.00;4989103;28;20242;-62
2023/01/05 06:55:27;;;;;;;4.50;1.10;;;;;;;9.44;100.00;99379.50;5002807;28;20268;-62
2023/01/05 06:57:55;;;;;;;3.73;0.60;;;;;;;9.44;100.00;99376.09;5000704;28;20775;-62
2023/01/05 07:00:22;;;;;;;6.17;0.80;;;;;;;9.49;100.00;99384.38;5004429;28;20621;-62
2023/01/05 07:02:48;;;;;;;8.27;1.02;;;;;;;9.61;100.00;99374.69;4999983;28;20439;-62
2023/01/05 07:05:15;;;;;;;5.43;1.00;;;;;;;9.57;100.00;99384.53;5002646;28;20439;-62
2023/01/05 07:07:42;;;;;;;5.50;0.80;;;;;;;9.58;100.00;99378.38;5002301;28;20220;-63
2023/01/05 07:10:09;;;;;;;7.20;0.80;;;;;;;9.63;100.00;99371.94;5000878;28;20240;-62
2023/01/05 07:12:36;;;;;;;2.17;0.70;;;;;;;9.68;100.00;99382.84;5002958;28;20259;-63
2023/01/05 07:15:05;;;;;;;4.80;1.07;;;;;;;9.69;100.00;99385.31;4999609;28;20299;-63
2023/01/05 07:17:32;;;;;;;12.20;0.80;;;;;;;9.68;100.00;99398.47;5005091;28;20223;-63
2023/01/05 07:19:58;;;;;;;6.27;0.77;;;;;;;9.70;100.00;99397.41;5003742;28;20228;-62
2023/01/05 07:22:27;;;;;;;8.93;1.47;;;;;;;9.66;100.00;99397.78;5006129;28;20299;-63
2023/01/05 07:24:53;;;;;;;8.53;2.20;;;;;;;9.62;100.00;99386.78;5003306;28;20316;-62
2023/01/05 07:27:20;;;;;;;12.93;3.93;;;;;;;9.65;100.00;99390.91;5006721;28;20226;-62
2023/01/05 07:29:46;;;;;;;5.60;1.13;;;;;;;9.64;100.00;99399.69;5007536;28;20672;-62
2023/01/05 07:32:14;;;;;;;7.63;1.47;;;;;;;9.63;100.00;99405.84;5004516;28;20762;-63
2023/01/05 07:34:41;;;;;;;12.00;2.63;;;;;;;9.63;100.00;99416.25;5006612;28;20853;-63
2023/01/05 07:37:07;;;;;;;8.43;1.00;;;;;;;9.67;100.00;99415.06;5003122;28;20241;-62
2023/01/05 07:39:34;;;;;;;6.67;1.50;;;;;;;9.63;100.00;99409.28;5007088;28;20276;-62
2023/01/05 07:42:00;;;;;;;6.07;1.57;;;;;;;9.63;100.00;99411.06;5002595;28;20236;-62
2023/01/05 07:44:27;;;;;;;9.93;1.70;;;;;;;9.63;100.00;99411.91;5006063;28;20279;-63
2023/01/05 07:46:53;;;;;;;8.43;2.37;;;;;;;9.62;100.00;99417.22;5003759;28;20290;-63
2023/01/05 07:49:21;;;;;;;9.93;2.70;;;;;;;9.58;100.00;99414.88;5004780;28;20236;-62
2023/01/05 07:51:48;;;;;;;13.57;3.00;;;;;;;9.65;100.00;99424.78;5003154;28;20271;-63
2023/01/05 07:54:14;;;;;;;8.63;2.13;;;;;;;9.64;100.00;99426.59;5004989;28;20223;-62
2023/01/05 07:56:41;;;;;;;5.60;1.67;;;;;;;9.64;100.00;99428.34;5006086;28;20289;-63
2023/01/05 07:59:07;;;;;;;12.97;2.30;;;;;;;9.64;100.00;99444.00;5003422;28;20236;-63
2023/01/05 08:01:34;;;;;;;8.70;1.73;;;;;;;9.67;100.00;99428.09;5006441;28;20225;-62
2023/01/05 08:04:00;;;;;;;7.73;1.63;;;;;;;9.65;100.00;99440.44;5002492;28;20220;-63
2023/01/05 08:06:28;;;;;;;10.52;2.47;;;;;;;9.69;100.00;99447.06;5005964;28;20446;-62
2023/01/05 08:08:56;;;;;;;13.77;1.97;;;;;;;9.66;100.00;99447.31;5003316;28;20288;-62
2023/01/05 08:11:22;;;;;;;9.00;2.57;;;;;;;9.65;100.00;99445.66;5006483;28;20229;-63
2023/01/05 08:16:35;;;;;;;6.70;3.27;;;;;;;9.72;100.00;99446.81;5001956;28;20588;-62
2023/01/05 08:19:02;;;;;;;12.57;3.60;;;;;;;9.76;100.00;99440.38;5002332;28;20287;-63
2023/01/05 08:21:30;;;;;;;8.37;2.43;;;;;;;9.78;100.00;99451.53;5006452;28;20802;-63
2023/01/05 08:23:58;;;;;;;12.20;2.20;;;;;;;9.84;100.00;99445.00;5001338;28;20236;-63
2023/01/05 08:26:25;;;;;;;13.87;2.60;;;;;;;9.85;100.00;99455.28;5006052;28;20230;-63
2023/01/05 08:28:52;;;;;;;13.63;2.70;;;;;;;9.84;100.00;99453.63;5000826;28;20222;-62
2023/01/05 08:31:21;;;;;;;11.23;1.90;;;;;;;9.90;100.00;99462.75;5004687;28;20759;-62
2023/01/05 08:33:48;;;;;;;13.67;2.33;;;;;;;9.94;100.00;99466.75;5001603;28;20218;-62
2023/01/05 08:36:18;;;;;;;15.03;2.63;;;;;;;9.97;100.00;99458.69;5005677;28;20226;-63
2023/01/05 08:38:47;;;;;;;8.67;1.83;;;;;;;10.02;100.00;99458.28;5006263;28;20226;-63
2023/01/05 08:41:18;;;;;;;9.30;1.87;;;;;;;10.06;100.00;99467.50;5003783;28;20229;-62
2023/01/05 08:43:49;;;;;;;12.47;1.80;;;;;;;10.13;100.00;99480.88;5005123;28;20226;-62
2023/01/05 08:46:16;;;;;;;11.27;1.50;;;;;;;10.19;100.00;99478.59;5003853;28;20226;-63
2023/01/05 08:48:43;;;;;;;8.53;1.57;;;;;;;10.26;100.00;99481.50;5005361;28;20697;-63
2023/01/05 08:51:09;;;;;;;10.90;1.90;;;;;;;10.21;100.00;99475.03;5002758;28;20236;-63
2023/01/05 08:53:36;;;;;;;12.00;1.73;;;;;;;10.36;100.00;99484.19;5004622;28;20737;-63
2023/01/05 08:56:04;;;;;;;9.73;1.90;;;;;;;10.15;100.00;99471.97;5001425;28;20637;-63
2023/01/05 08:58:31;;;;;;;9.80;1.63;;;;;;;10.18;100.00;99483.91;5005625;28;20224;-62
2023/01/05 09:00:58;;;;;;;13.80;2.50;;;;;;;10.17;100.00;99485.72;5000870;28;20240;-62
2023/01/05 09:03:24;;;;;;;9.23;1.80;;;;;;;10.18;100.00;99489.13;5005553;28;20236;-62
2023/01/05 09:05:52;;;;;;;10.87;2.23;;;;;;;10.17;100.00;99490.94;5001688;28;20250;-63
2023/01/05 09:08:19;;;;;;;7.67;1.73;;;;;;;10.19;100.00;99490.78;5005225;28;20219;-62
2023/01/05 09:10:45;;;;;;;12.03;1.90;;;;;;;10.20;100.00;99482.00;5004035;28;20221;-63
2023/01/05 09:13:13;;;;;;;18.20;2.33;;;;;;;10.26;100.00;99512.81;5000507;28;20269;-62
2023/01/05 09:15:40;;;;;;;8.80;1.70;;;;;;;10.32;100.00;99511.50;5004592;28;20237;-62
2023/01/05 09:18:06;;;;;;;9.07;1.77;;;;;;;10.29;100.00;99516.97;5001921;28;20309;-62
2023/01/05 09:20:33;;;;;;;10.57;2.20;;;;;;;10.37;100.00;99522.38;5004654;28;20229;-62
2023/01/05 09:23:00;;;;;;;10.53;1.60;;;;;;;10.47;98.93;99525.06;5002222;28;20226;-62
2023/01/05 09:25:26;;;;;;;8.80;1.90;;;;;;;10.36;99.63;99530.31;5004360;28;20236;-62
2023/01/05 09:27:53;;;;;;;9.27;1.90;;;;;;;10.31;99.27;99526.31;5001132;28;20241;-62
2023/01/05 09:30:21;;;;;;;9.53;2.10;;;;;;;10.33;99.30;99524.41;5004845;28;20282;-62
2023/01/05 09:32:47;;;;;;;9.13;2.07;;;;;;;10.38;100.00;99537.09;5000326;28;20231;-62
2023/01/05 09:35:14;;;;;;;11.13;2.43;;;;;;;10.33;98.57;99531.41;5003820;28;20253;-62
2023/01/05 09:37:40;;;;;;;4.13;1.70;;;;;;;10.41;98.86;99528.19;5004345;28;20283;-63
2023/01/05 09:40:08;;;;;;;10.37;2.20;;;;;;;10.44;96.86;99539.22;5001512;28;20239;-63
2023/01/05 09:42:41;;;;;;;10.77;1.80;;;;;;;10.48;96.08;99542.41;5003883;28;20741;-62
2023/01/05 09:45:11;;;;;;;8.97;1.83;;;;;;;10.33;93.92;99534.84;5000796;28;21007;-62
2023/01/05 09:47:43;;;;;;;14.93;2.10;;;;;;;10.30;95.49;99529.88;5004417;28;20344;-62
2023/01/05 09:50:19;;;;;;;16.53;1.90;;;;;;;10.29;93.38;99525.63;5000614;28;20229;-63
2023/01/05 09:52:46;;;;;;;15.47;2.40;;;;;;;10.38;92.22;99526.66;5003986;28;20216;-62
2023/01/05 09:55:15;;;;;;;13.27;2.10;;;;;;;10.56;89.57;99529.53;5001786;28;20303;-63
2023/01/05 09:57:49;;;;;;;11.37;1.93;;;;;;;10.44;89.52;99525.34;5004530;28;20749;-62
2023/01/05 10:00:17;;;;;;;12.83;2.30;;;;;;;10.58;90.35;99526.81;5000483;28;20221;-62
2023/01/05 10:02:49;;;;;;;11.43;2.20;;;;;;;10.54;88.25;99536.66;5000083;28;20247;-62
2023/01/05 10:05:16;;;;;;;13.37;2.70;;;;;;;10.54;89.77;99541.06;4998278;28;20228;-62
2023/01/05 10:07:47;;;;;;;16.13;2.07;;;;;;;10.50;87.55;99537.06;5002651;28;20224;-62
2023/01/05 10:10:26;;;;;;;17.53;2.50;;;;;;;10.55;88.20;99522.66;4999873;28;20227;-62
2023/01/05 10:13:01;;;;;;;15.20;1.90;;;;;;;10.77;86.48;99533.91;5000285;28;20294;-62
2023/01/05 10:15:33;;;;;;;13.67;1.93;;;;;;;10.71;85.85;99530.00;5003200;28;20308;-62
2023/01/05 10:18:08;;;;;;;13.03;1.87;;;;;;;10.67;87.00;99520.78;4999330;28;20231;-62
2023/01/05 10:20:45;;;;;;;20.60;2.47;;;;;;;10.76;87.46;99521.81;5017899;28;20221;-63
2023/01/05 10:23:24;;;;;;;15.63;2.20;;;;;;;10.72;85.93;99507.34;5000416;28;20717;-62
2023/01/05 10:25:55;;;;;;;13.17;2.00;;;;;;;10.87;86.04;99513.03;5000380;28;20723;-63
2023/01/05 10:28:35;;;;;;;19.20;2.97;;;;;;;10.63;86.42;99507.16;5001062;28;20229;-64
2023/01/05 10:31:06;;;;;;;11.70;2.40;;;;;;;10.70;84.91;99506.66;4999112;28;20243;-63
2023/01/05 10:33:47;;;;;;;12.80;1.83;;;;;;;10.89;85.18;99508.53;5001768;28;20264;-63
2023/01/05 10:36:25;;;;;;;12.40;2.80;;;;;;;10.77;84.89;99508.59;5000439;28;20312;-63
2023/01/05 10:38:59;;;;;;;18.27;2.40;;;;;;;10.70;84.13;99511.88;4998467;28;20227;-63
2023/01/05 10:41:33;;;;;;;15.17;2.90;;;;;;;10.70;84.71;99507.47;5001592;28;20242;-62
2023/01/05 10:44:20;;;;;;;12.53;2.23;;;;;;;10.67;83.92;99499.09;4999248;28;20231;-63
2023/01/05 10:46:49;;;;;;;20.13;2.47;;;;;;;10.73;85.31;99498.56;5000399;28;20230;-63
2023/01/05 10:49:21;;;;;;;12.60;3.07;;;;;;;10.67;85.86;99499.09;5000953;28;20276;-63
2023/01/05 10:51:50;;;;;;;12.40;3.13;;;;;;;10.66;84.10;99500.84;4998448;28;20236;-63
2023/01/05 10:54:26;;;;;;;12.60;2.50;;;;;;;10.68;84.14;99491.09;5006890;28;20282;-63
2023/01/05 10:56:53;;;;;;;12.03;2.47;;;;;;;10.81;83.89;99495.28;5004011;28;20608;-63
2023/01/05 10:59:19;;;;;;;12.00;1.90;;;;;;;10.70;84.92;99499.63;5006490;28;20244;-61
2023/01/05 11:01:49;;;;;;;17.67;2.87;;;;;;;10.76;83.44;99488.66;5007098;28;20234;-61
2023/01/05 11:04:19;;;;;;;21.77;2.87;;;;;;;10.80;83.96;99484.03;5004564;28;20629;-61
2023/01/05 11:06:47;;;;;;;13.10;2.33;;;;;;;10.93;83.82;99484.63;5008050;28;20628;-61
2023/01/05 11:09:18;;;;;;;13.73;2.23;;;;;;;10.85;83.89;99489.69;5004113;28;20234;-62
2023/01/05 11:11:53;;;;;;;8.63;2.10;;;;;;;11.07;82.28;99486.03;5006983;28;20244;-62
2023/01/05 11:14:21;;;;;;;14.77;2.80;;;;;;;10.93;82.59;99479.41;5003461;28;20283;-61
2023/01/05 11:16:49;;;;;;;10.93;2.17;;;;;;;11.05;83.71;99490.56;5003544;28;20225;-63
2023/01/05 11:19:21;;;;;;;13.53;2.23;;;;;;;11.24;80.52;99494.22;5007517;28;20282;-61
2023/01/05 11:21:48;;;;;;;14.93;2.57;;;;;;;11.25;81.18;99490.63;5004048;28;20231;-62
2023/01/05 11:24:30;;;;;;;13.07;2.47;;;;;;;11.19;82.94;99485.94;5006458;28;20636;-62
2023/01/05 11:26:58;;;;;;;13.80;2.53;;;;;;;11.12;81.35;99490.88;5002082;28;20795;-62
2023/01/05 11:29:25;;;;;;;17.03;3.53;;;;;;;11.20;82.15;99495.44;5006418;28;20272;-62
2023/01/05 11:31:55;;;;;;;18.77;2.90;;;;;;;11.17;81.49;99490.47;5002346;28;20821;-62
2023/01/05 11:34:39;;;;;;;15.70;2.83;;;;;;;11.12;82.01;99487.44;5005864;28;20217;-62
2023/01/05 11:37:13;;;;;;;16.13;3.00;;;;;;;11.22;81.53;99486.50;5002719;28;20601;-62
2023/01/05 11:39:47;;;;;;;12.77;2.73;;;;;;;11.19;82.24;99494.59;5007512;28;20232;-62
2023/01/05 11:42:18;;;;;;;12.33;3.23;;;;;;;11.21;83.49;99497.91;5004471;28;20253;-64
2023/01/05 11:44:49;;;;;;;15.60;3.53;;;;;;;11.55;79.70;99501.97;5006922;28;20229;-62
2023/01/05 11:47:23;;;;;;;14.40;3.00;;;;;;;11.37;81.09;99497.41;5004338;28;20217;-62
2023/01/05 11:49:58;;;;;;;12.80;2.37;;;;;;;11.35;81.85;99507.16;5002996;28;20234;-62
2023/01/05 11:52:28;;;;;;;11.73;2.23;;;;;;;11.34;81.99;99497.69;5006095;28;20237;-62
2023/01/05 11:54:54;;;;;;;11.60;3.50;;;;;;;11.49;82.24;99495.50;5001765;28;20240;-62
2023/01/05 11:57:22;;;;;;;16.37;3.60;;;;;;;11.54;83.05;99494.25;5007152;28;20244;-62
2023/01/05 11:59:50;;;;;;;10.13;2.60;;;;;;;11.60;81.77;99498.94;5003214;28;20244;-62
2023/01/05 12:02:55;;;;;;;13.63;2.57;;;;;;;11.53;82.08;99483.00;5006326;28;20225;-62
2023/01/05 12:05:31;;;;;;;15.30;2.47;;;;;;;11.61;82.71;99482.28;5003990;28;20229;-62
2023/01/05 12:08:06;;;;;;;14.73;2.90;;;;;;;11.71;83.07;99490.97;5001833;28;20249;-63
2023/01/05 12:10:47;;;;;;;19.10;4.53;;;;;;;11.65;81.96;99479.28;5006100;28;20725;-63
2023/01/05 12:13:45;;;;;;;13.20;2.57;;;;;;;11.63;82.23;99491.69;5002437;28;20584;-62
2023/01/05 12:16:26;;;;;;;14.67;4.70;;;;;;;11.84;82.13;99487.28;5002650;28;20309;-63